Time;durP1;ratioP1;P1;durP2;ratioP2;P2;SDS_P1;SDS_P2;PMS_P1;PMS_P2;Temp;Humidity;BMP_temperature;BMP_pressure;BME280_temperature;BME280_humidity;BME280_pressure;Samples;Min_cycle;Max_cycle;Signal;HPM_P1;HPM_P2
2023/07/03 00:06:29;;;;;;;7.97;3.10;;;;;;;;;;20936467;28;20229;-67
2023/07/03 00:16:31;;;;;;;3.90;2.50;;;;;;;;;;20872581;28;20211;-69
2023/07/03 00:26:32;;;;;;;4.40;2.77;;;;;;;;;;20936721;28;20269;-67
2023/07/03 00:36:34;;;;;;;6.27;2.80;;;;;;;;;;20931677;28;20781;-67
2023/07/03 00:46:37;;;;;;;5.07;2.70;;;;;;;;;;20931818;28;20700;-69
2023/07/03 00:56:39;;;;;;;4.27;2.53;;;20.90;99.90;;;;;;20932459;28;20236;-67
2023/07/03 01:06:50;;;;;;;6.47;2.90;;;20.90;99.90;;;;;;20933564;28;20216;-68
2023/07/03 01:16:52;;;;;;;5.40;2.90;;;;;;;;;;20885335;28;20560;-68
2023/07/03 01:26:54;;;;;;;4.10;2.40;;;;;;;;;;20944733;28;20215;-68
2023/07/03 01:36:58;;;;;;;4.40;2.70;;;;;;;;;;20900833;28;20289;-68
2023/07/03 01:47:08;;;;;;;5.90;2.63;;;;;;;;;;20944949;28;20204;-69
2023/07/03 01:57:11;;;;;;;6.03;2.80;;;20.40;99.90;;;;;;20942932;28;20227;-68
2023/07/03 02:07:13;;;;;;;4.50;2.77;;;;;;;;;;20945038;28;20611;-68
2023/07/03 02:17:15;;;;;;;4.03;2.43;;;;;;;;;;20896939;28;20248;-69
2023/07/03 02:27:19;;;;;;;4.87;2.57;;;;;;;;;;20872408;28;20279;-68
2023/07/03 02:37:21;;;;;;;4.33;2.33;;;;;;;;;;20952915;28;20746;-68
2023/07/03 02:47:23;;;;;;;4.17;2.50;;;;;;;;;;20938914;28;20596;-68
2023/07/03 02:57:25;;;;;;;4.70;2.67;;;;;;;;;;20953812;28;20784;-70
2023/07/03 03:07:28;;;;;;;5.07;2.20;;;;;;;;;;20924249;28;20294;-68
2023/07/03 03:17:33;;;;;;;4.47;2.17;;;;;;;;;;20887359;28;20279;-68
2023/07/03 03:27:35;;;;;;;4.13;2.10;;;;;;;;;;20891288;28;20619;-67
2023/07/03 03:37:37;;;;;;;5.50;2.50;;;18.10;99.90;;;;;;20886056;28;20297;-67
2023/07/03 03:47:40;;;;;;;4.07;2.13;;;;;;;;;;20887473;28;20227;-68
2023/07/03 03:57:44;;;;;;;5.53;2.63;;;;;;;;;;20863212;28;20240;-68
2023/07/03 04:07:46;;;;;;;6.13;3.03;;;;;;;;;;20860130;28;20681;-67
2023/07/03 04:17:48;;;;;;;3.80;2.20;;;;;;;;;;20874530;28;20308;-68
2023/07/03 04:27:51;;;;;;;7.70;2.93;;;;;;;;;;20889110;28;20289;-69
2023/07/03 04:37:52;;;;;;;4.00;1.90;;;;;;;;;;20922517;28;20231;-68
2023/07/03 04:47:54;;;;;;;4.83;2.07;;;;;;;;;;20949232;28;20195;-68
2023/07/03 04:57:57;;;;;;;3.90;1.80;;;;;;;;;;20905266;28;20232;-68
2023/07/03 05:07:59;;;;;;;6.00;2.40;;;;;;;;;;20884739;28;20196;-68
2023/07/03 05:18:02;;;;;;;6.00;2.50;;;;;;;;;;20876486;28;20232;-68
2023/07/03 05:28:04;;;;;;;4.37;2.27;;;;;;;;;;20827334;28;20204;-68
2023/07/03 05:38:05;;;;;;;4.10;2.13;;;;;;;;;;20865052;28;20223;-68
2023/07/03 05:48:07;;;;;;;4.03;2.23;;;;;;;;;;20952328;28;20204;-68
2023/07/03 05:58:09;;;;;;;4.67;2.30;;;;;;;;;;20943627;28;20280;-68
2023/07/03 06:08:12;;;;;;;4.27;1.70;;;;;;;;;;20962384;28;20775;-69
2023/07/03 06:18:15;;;;;;;3.37;1.80;;;;;;;;;;20899212;28;20232;-69
2023/07/03 06:28:17;;;;;;;6.80;1.70;;;;;;;;;;20964113;28;20285;-68
2023/07/03 06:38:19;;;;;;;6.43;1.60;;;;;;;;;;20908333;28;20405;-69
2023/07/03 06:48:21;;;;;;;2.97;1.03;;;;;;;;;;20919235;28;20223;-68
2023/07/03 06:58:23;;;;;;;2.00;1.10;;;;;;;;;;20891668;28;20220;-68
2023/07/03 07:08:25;;;;;;;4.60;1.40;;;;;;;;;;20863549;28;20216;-68
2023/07/03 07:18:27;;;;;;;3.93;1.10;;;;;;;;;;20891068;28;20605;-68
2023/07/03 07:28:29;;;;;;;2.17;1.00;;;;;;;;;;20860936;28;20675;-68
2023/07/03 07:38:31;;;;;;;4.60;1.30;;;;;;;;;;20890621;28;20706;-69
2023/07/03 07:48:33;;;;;;;1.53;1.03;;;;;;;;;;20885943;28;20215;-68
2023/07/03 07:58:35;;;;;;;3.57;1.20;;;;;;;;;;20908818;28;20232;-68
2023/07/03 08:08:37;;;;;;;6.10;1.27;;;;;;;;;;20890273;28;20368;-68
2023/07/03 08:18:40;;;;;;;3.27;1.23;;;;;;;;;;20863169;28;20323;-69
2023/07/03 08:28:43;;;;;;;4.57;1.43;;;;;;;;;;20895122;28;20263;-68
2023/07/03 08:38:44;;;;;;;2.33;1.00;;;;;;;;;;20878225;28;20221;-68
2023/07/03 08:48:48;;;;;;;2.57;1.10;;;21.40;99.90;;;;;;20881374;28;20276;-68
2023/07/03 08:58:51;;;;;;;2.10;1.10;;;21.30;99.90;;;;;;20943556;28;20231;-68
2023/07/03 09:08:53;;;;;;;4.40;0.80;;;;;;;;;;20924415;28;20293;-69
2023/07/03 09:19:00;;;;;;;3.30;0.97;;;;;;;;;;20892476;28;20257;-69
2023/07/03 09:29:03;;;;;;;2.87;0.80;;;21.50;99.90;;;;;;20907247;28;20631;-68
2023/07/03 09:39:10;;;;;;;2.30;0.70;;;21.50;99.30;;;;;;20891956;28;20229;-68
2023/07/03 09:49:22;;;;;;;2.80;0.80;;;;;;;;;;20843464;28;20271;-68
2023/07/03 09:59:25;;;;;;;2.17;0.83;;;;;;;;;;20884152;28;20220;-69
2023/07/03 10:09:31;;;;;;;1.47;0.90;;;21.80;99.10;;;;;;20915312;28;20209;-68
2023/07/03 10:19:34;;;;;;;1.77;1.03;;;;;;;;;;20896808;28;20213;-68
2023/07/03 10:29:41;;;;;;;3.13;1.20;;;21.90;99.90;;;;;;20883119;28;20875;-68
2023/07/03 10:40:04;;;;;;;4.83;0.87;;;;;;;;;;20937489;28;20225;-68
2023/07/03 10:50:08;;;;;;;2.17;0.80;;;23.40;97.50;;;;;;20940279;28;20255;-69
2023/07/03 11:00:13;;;;;;;2.30;0.90;;;;;;;;;;20943146;28;20291;-68
2023/07/03 11:10:34;;;;;;;3.97;0.80;;;;;;;;;;20897201;28;20220;-68
2023/07/03 11:20:59;;;;;;;2.25;0.90;;;23.80;93.10;;;;;;20870821;28;20570;-69
2023/07/03 11:31:04;;;;;;;1.38;0.77;;;23.60;92.80;;;;;;20859863;28;20271;-68
2023/07/03 11:41:09;;;;;;;1.98;0.80;;;23.70;94.30;;;;;;20924671;28;20647;-68
2023/07/03 11:51:32;;;;;;;2.40;0.57;;;23.40;94.00;;;;;;20951082;28;20293;-69
2023/07/03 12:01:36;;;;;;;1.80;0.63;;;;;;;;;;20934507;28;20315;-69
2023/07/03 12:12:02;;;;;;;0.90;0.60;;;23.30;93.80;;;;;;20916160;28;20292;-69
2023/07/03 12:22:04;;;;;;;1.42;0.77;;;;;;;;;;20927717;22;20214;-73
2023/07/03 12:32:08;;;;;;;2.05;0.60;;;23.50;99.10;;;;;;20932304;28;20318;-72
2023/07/03 12:42:11;;;;;;;1.42;0.70;;;;;;;;;;20895807;28;20198;-73
2023/07/03 12:52:14;;;;;;;1.00;0.40;;;;;;;;;;20939871;28;20205;-72
2023/07/03 13:02:26;;;;;;;1.15;0.50;;;;;;;;;;20928750;28;20212;-73
2023/07/03 13:12:28;;;;;;;2.22;0.50;;;;;;;;;;20932953;28;20279;-73
2023/07/03 13:22:32;;;;;;;0.75;0.32;;;;;;;;;;20935999;28;20221;-73
2023/07/03 13:32:34;;;;;;;0.75;0.35;;;;;;;;;;20962862;28;20275;-73
2023/07/03 13:42:36;;;;;;;1.40;0.32;;;;;;;;;;20990266;28;20254;-73
2023/07/03 13:52:38;;;;;;;0.68;0.32;;;;;;;;;;20916288;28;20253;-72
2023/07/03 14:02:40;;;;;;;0.73;0.50;;;;;;;;;;20934574;28;20267;-72
2023/07/03 14:12:42;;;;;;;1.23;0.65;;;;;;;;;;20933654;28;20271;-73
2023/07/03 14:22:44;;;;;;;1.13;0.30;;;;;;;;;;20936880;28;20237;-72
2023/07/03 14:32:46;;;;;;;0.65;0.43;;;;;;;;;;20930656;28;20278;-72
2023/07/03 14:42:48;;;;;;;1.00;0.40;;;;;;;;;;20967017;28;20674;-73
2023/07/03 14:52:50;;;;;;;1.40;0.52;;;;;;;;;;20956789;28;20211;-72
2023/07/03 15:02:52;;;;;;;1.63;0.70;;;;;;;;;;20966399;28;20679;-73
2023/07/03 15:12:54;;;;;;;0.55;0.40;;;;;;;;;;20929764;28;20212;-72
2023/07/03 15:22:56;;;;;;;3.65;0.77;;;;;;;;;;20969717;28;20589;-72
2023/07/03 15:32:57;;;;;;;0.90;0.50;;;;;;;;;;20959477;28;20355;-72
2023/07/03 15:42:59;;;;;;;0.50;0.30;;;;;;;;;;20919852;28;20216;-72
2023/07/03 15:53:01;;;;;;;1.02;0.50;;;;;;;;;;20896654;28;20292;-72
2023/07/03 16:03:03;;;;;;;0.98;0.60;;;;;;;;;;20901183;28;20685;-73
2023/07/03 16:13:04;;;;;;;0.63;0.50;;;;;;;;;;20908147;28;20371;-72
2023/07/03 16:23:06;;;;;;;1.08;0.50;;;;;;;;;;20884634;28;20289;-71
2023/07/03 16:33:08;;;;;;;1.85;0.50;;;;;;;;;;20909829;28;20227;-71
2023/07/03 16:43:10;;;;;;;0.80;0.40;;;;;;;;;;20887198;28;20220;-71
2023/07/03 16:53:15;;;;;;;0.70;0.40;;;;;;;;;;20933564;28;20765;-71
2023/07/03 17:03:17;;;;;;;1.38;0.82;;;;;;;;;;20969265;28;20224;-72
2023/07/03 17:13:19;;;;;;;0.75;0.45;;;;;;;;;;20949129;28;20258;-72
2023/07/03 17:23:20;;;;;;;1.27;0.60;;;;;;;;;;20915443;28;20235;-71
2023/07/03 17:33:22;;;;;;;3.08;0.57;;;;;;;;;;20921857;28;20261;-71
2023/07/03 17:43:24;;;;;;;1.05;0.50;;;;;;;;;;20907887;28;20204;-70
2023/07/03 17:53:26;;;;;;;0.75;0.47;;;;;;;;;;20902745;28;20674;-70
2023/07/03 18:03:28;;;;;;;1.20;0.57;;;;;;;;;;20908818;28;20270;-70
2023/07/03 18:13:30;;;;;;;1.67;0.70;;;;;;;;;;20945186;28;20294;-70
2023/07/03 18:23:32;;;;;;;2.53;0.50;;;;;;;;;;20905037;28;20221;-69
2023/07/03 18:33:34;;;;;;;1.42;0.63;;;;;;;;;;20968456;22;20237;-65
2023/07/03 18:43:36;;;;;;;0.73;0.47;;;;;;;;;;20957696;28;20371;-67
2023/07/03 18:53:38;;;;;;;0.60;0.35;;;;;;;;;;20956446;28;20225;-67
2023/07/03 19:03:40;;;;;;;1.13;0.50;;;22.40;99.90;;;;;;21006026;28;20243;-67
2023/07/03 19:13:43;;;;;;;1.27;0.50;;;;;;;;;;20966834;28;20236;-67
2023/07/03 19:23:45;;;;;;;1.57;0.50;;;;;;;;;;20942616;28;20286;-67
2023/07/03 19:33:48;;;;;;;1.00;0.50;;;;;;;;;;20959193;28;20278;-67
2023/07/03 19:44:02;;;;;;;0.70;0.47;;;;;;;;;;20947872;28;20228;-64
2023/07/03 19:54:11;;;;;;;0.83;0.50;;;;;;;;;;20960977;28;20218;-64
2023/07/03 20:04:13;;;;;;;0.80;0.50;;;;;;;;;;20964874;28;20367;-64
2023/07/03 20:14:15;;;;;;;1.13;0.70;;;;;;;;;;20963389;28;20597;-64
2023/07/03 20:24:17;;;;;;;1.50;0.73;;;;;;;;;;20943308;28;20650;-66
2023/07/03 20:34:21;;;;;;;1.00;0.50;;;;;;;;;;20989673;28;20239;-66
2023/07/03 20:44:24;;;;;;;1.70;0.83;;;;;;;;;;21056240;28;20690;-66
2023/07/03 20:54:42;;;;;;;0.90;0.50;;;;;;;;;;20966833;28;20284;-66
2023/07/03 21:04:44;;;;;;;1.90;0.50;;;;;;;;;;20993520;28;20223;-66
2023/07/03 21:14:46;;;;;;;1.13;0.60;;;;;;;;;;21014743;28;20262;-66
2023/07/03 21:24:48;;;;;;;1.17;0.70;;;;;;;;;;21059046;28;20231;-66
2023/07/03 21:34:50;;;;;;;1.73;0.60;;;;;;;;;;21029243;28;20229;-64
2023/07/03 21:44:52;;;;;;;1.50;0.70;;;;;;;;;;21044743;28;20211;-64
2023/07/03 21:54:54;;;;;;;0.63;0.47;;;;;;;;;;21027590;28;20266;-65
2023/07/03 22:04:56;;;;;;;0.83;0.43;;;;;;;;;;21026755;28;20308;-65
2023/07/03 22:14:58;;;;;;;1.40;0.70;;;;;;;;;;20996232;28;20228;-64
2023/07/03 22:25:00;;;;;;;0.70;0.47;;;;;;;;;;20962337;28;20245;-64
2023/07/03 22:35:03;;;;;;;0.90;0.60;;;;;;;;;;20957297;28;20663;-64
2023/07/03 22:45:06;;;;;;;1.30;0.53;;;23.30;99.90;;;;;;20954924;28;20279;-64
2023/07/03 22:55:10;;;;;;;1.00;0.50;;;;;;;;;;21038510;28;20240;-64
2023/07/03 23:05:12;;;;;;;0.67;0.40;;;;;;;;;;20981635;28;20272;-64
2023/07/03 23:15:14;;;;;;;0.93;0.50;;;;;;;;;;21003739;28;20283;-64
2023/07/03 23:25:16;;;;;;;0.90;0.50;;;;;;;;;;21053711;28;20694;-64
2023/07/03 23:35:18;;;;;;;0.90;0.60;;;;;;;;;;21019272;28;20772;-64
2023/07/03 23:45:21;;;;;;;0.87;0.50;;;;;;;;;;21035799;28;20800;-64
2023/07/03 23:55:22;;;;;;;0.83;0.57;;;;;;;;;;21018232;28;20231;-64
